createdAt,value
2023-01-21T00:01:09.552Z,1.00
2023-01-21T00:03:36.979Z,1.00
2023-01-21T00:06:04.629Z,1.00
2023-01-21T00:08:31.989Z,1.00
2023-01-21T00:11:05.501Z,1.00
2023-01-21T00:13:37.246Z,1.00
2023-01-21T00:16:05.514Z,1.00
2023-01-21T00:18:33.638Z,1.00
2023-01-21T00:21:01.279Z,1.00
2023-01-21T00:23:28.415Z,1.00
2023-01-21T00:26:00.591Z,1.10
2023-01-21T00:28:32.442Z,1.10
2023-01-21T00:31:01.488Z,1.00
2023-01-21T00:33:29.402Z,1.10
2023-01-21T00:36:08.150Z,1.00
2023-01-21T00:38:35.836Z,1.10
2023-01-21T00:41:05.593Z,1.10
2023-01-21T00:43:33.054Z,1.10
2023-01-21T00:46:00.236Z,1.10
2023-01-21T00:48:28.710Z,1.10
2023-01-21T00:50:59.114Z,1.10
2023-01-21T00:53:31.268Z,1.10
2023-01-21T00:56:07.041Z,1.10
2023-01-21T00:58:35.283Z,1.10
2023-01-21T01:01:06.891Z,1.00
2023-01-21T01:03:35.780Z,1.10
2023-01-21T01:06:11.010Z,1.00
2023-01-21T01:08:38.303Z,1.00
2023-01-21T01:11:05.563Z,1.00
2023-01-21T01:13:34.609Z,1.00
2023-01-21T01:16:02.737Z,1.00
2023-01-21T01:18:33.209Z,1.00
2023-01-21T01:21:01.033Z,1.00
2023-01-21T01:23:28.523Z,1.00
2023-01-21T01:26:01.745Z,1.00
2023-01-21T01:28:30.304Z,1.00
2023-01-21T01:30:58.457Z,1.00
2023-01-21T01:33:26.563Z,1.00
2023-01-21T01:35:53.985Z,0.90
2023-01-21T01:38:23.163Z,1.00
2023-01-21T01:40:52.762Z,1.00
2023-01-21T01:43:23.780Z,0.90
2023-01-21T01:45:51.308Z,0.90
2023-01-21T01:48:31.875Z,0.90
2023-01-21T01:51:03.701Z,0.90
2023-01-21T01:53:32.063Z,0.90
2023-01-21T01:55:59.829Z,0.90
2023-01-21T01:58:28.562Z,0.90
2023-01-21T02:00:55.591Z,0.90
2023-01-21T02:03:41.891Z,0.90
2023-01-21T02:06:08.903Z,0.90
2023-01-21T02:08:36.500Z,0.90
2023-01-21T02:11:11.040Z,0.80
2023-01-21T02:13:38.158Z,0.80
2023-01-21T02:16:15.925Z,0.90
2023-01-21T02:18:46.109Z,0.80
2023-01-21T02:21:16.123Z,0.80
2023-01-21T02:23:49.186Z,0.80
2023-01-21T02:26:19.049Z,0.80
2023-01-21T02:29:05.182Z,0.80
2023-01-21T02:31:47.264Z,0.80
2023-01-21T02:34:43.088Z,0.80
2023-01-21T02:37:26.994Z,0.80
2023-01-21T02:40:18.489Z,0.80
2023-01-21T02:43:01.972Z,0.80
2023-01-21T02:45:35.125Z,0.80
2023-01-21T02:48:16.359Z,0.80
2023-01-21T02:50:46.940Z,0.80
2023-01-21T02:53:24.732Z,0.70
2023-01-21T02:55:52.345Z,0.80
2023-01-21T02:58:28.543Z,0.80
2023-01-21T03:01:22.049Z,0.80
2023-01-21T03:03:49.276Z,0.80
2023-01-21T03:06:52.390Z,0.80
2023-01-21T03:09:24.201Z,0.80
2023-01-21T03:12:07.043Z,0.70
2023-01-21T03:15:02.879Z,0.70
2023-01-21T03:17:52.849Z,0.80
2023-01-21T03:20:45.159Z,0.80
2023-01-21T03:23:35.506Z,0.70
2023-01-21T03:26:04.127Z,0.70
2023-01-21T03:28:34.026Z,0.70
2023-01-21T03:31:06.053Z,0.80
2023-01-21T03:33:37.734Z,0.70
2023-01-21T03:36:14.590Z,0.80
2023-01-21T03:38:48.065Z,0.80
2023-01-21T03:41:27.349Z,0.80
2023-01-21T03:43:54.549Z,0.80
2023-01-21T03:46:35.415Z,0.80
2023-01-21T03:49:20.607Z,0.80
2023-01-21T03:51:55.641Z,0.80
2023-01-21T03:54:23.198Z,0.70
2023-01-21T03:56:50.338Z,0.70
2023-01-21T03:59:17.481Z,0.70
2023-01-21T04:01:44.501Z,0.80
2023-01-21T04:04:12.149Z,0.80
2023-01-21T04:06:39.332Z,0.70
2023-01-21T04:09:07.453Z,0.70
2023-01-21T04:11:34.672Z,0.70
2023-01-21T04:14:01.827Z,0.70
2023-01-21T04:16:29.128Z,0.70
2023-01-21T04:18:56.165Z,0.80
2023-01-21T04:21:23.400Z,0.80
2023-01-21T04:23:50.458Z,0.80
2023-01-21T04:26:17.561Z,0.80
2023-01-21T04:28:44.676Z,0.80
2023-01-21T04:31:11.903Z,0.90
2023-01-21T04:33:39.148Z,0.90
2023-01-21T04:36:06.285Z,0.90
2023-01-21T04:38:33.278Z,0.90
2023-01-21T04:41:00.379Z,0.90
2023-01-21T04:43:27.415Z,0.90
2023-01-21T04:45:54.409Z,0.90
2023-01-21T04:48:21.713Z,0.90
2023-01-21T04:50:48.824Z,0.90
2023-01-21T04:53:15.922Z,0.90
2023-01-21T04:55:43.101Z,0.90
2023-01-21T04:58:10.360Z,0.90
2023-01-21T05:00:37.585Z,0.90
2023-01-21T05:03:04.773Z,0.90
2023-01-21T05:05:31.821Z,0.90
2023-01-21T05:07:58.864Z,0.90
2023-01-21T05:10:26.007Z,0.90
2023-01-21T05:12:53.268Z,0.90
2023-01-21T05:15:20.568Z,0.90
2023-01-21T05:17:47.566Z,0.90
2023-01-21T05:20:14.873Z,0.90
2023-01-21T05:22:42.130Z,0.90
2023-01-21T05:25:09.278Z,1.00
2023-01-21T05:27:36.842Z,1.00
2023-01-21T05:30:04.141Z,0.90
2023-01-21T05:32:31.245Z,0.90
2023-01-21T05:34:58.458Z,0.90
2023-01-21T05:37:25.441Z,0.90
2023-01-21T05:39:52.477Z,1.00
2023-01-21T05:42:19.590Z,1.00
2023-01-21T05:44:46.507Z,1.00
2023-01-21T05:47:13.597Z,0.90
2023-01-21T05:49:40.728Z,1.00
2023-01-21T05:52:07.657Z,1.00
2023-01-21T05:54:34.635Z,1.00
2023-01-21T05:57:01.619Z,1.00
2023-01-21T05:59:28.718Z,1.00
2023-01-21T06:01:55.857Z,1.00
2023-01-21T06:04:28.424Z,1.00
2023-01-21T06:06:55.873Z,1.00
2023-01-21T06:09:22.920Z,1.00
2023-01-21T06:11:49.958Z,1.00
2023-01-21T06:14:17.012Z,1.00
2023-01-21T06:16:44.150Z,1.00
2023-01-21T06:19:11.227Z,1.00
2023-01-21T06:21:38.340Z,1.00
2023-01-21T06:24:05.913Z,1.00
2023-01-21T06:26:34.247Z,1.00
2023-01-21T06:29:01.379Z,1.00
2023-01-21T06:31:28.426Z,1.00
2023-01-21T06:33:55.579Z,1.00
2023-01-21T06:36:22.701Z,1.00
2023-01-21T06:38:49.785Z,1.00
2023-01-21T06:41:17.134Z,1.00
2023-01-21T06:43:44.181Z,1.00
2023-01-21T06:46:11.430Z,1.00
2023-01-21T06:48:38.517Z,1.00
2023-01-21T06:51:05.866Z,1.00
2023-01-21T06:53:32.912Z,1.10
2023-01-21T06:56:00.130Z,1.10
2023-01-21T06:58:27.370Z,1.10
2023-01-21T07:00:57.215Z,1.10
2023-01-21T07:03:24.400Z,1.10
2023-01-21T07:05:51.359Z,1.00
2023-01-21T07:08:18.472Z,1.00
2023-01-21T07:10:47.648Z,1.00
2023-01-21T07:13:15.154Z,1.00
2023-01-21T07:15:42.389Z,1.00
2023-01-21T07:18:09.353Z,1.00
2023-01-21T07:20:37.690Z,1.00
2023-01-21T07:23:05.497Z,0.90
2023-01-21T07:25:32.624Z,1.00
2023-01-21T07:27:59.705Z,1.00
2023-01-21T07:30:26.761Z,1.00
2023-01-21T07:32:53.818Z,1.00
2023-01-21T07:35:20.751Z,1.00
2023-01-21T07:37:47.904Z,1.10
2023-01-21T07:40:15.251Z,1.00
2023-01-21T07:42:42.223Z,1.00
2023-01-21T07:45:09.568Z,1.00
2023-01-21T07:47:36.578Z,1.00
2023-01-21T07:50:08.639Z,1.10
2023-01-21T07:52:36.333Z,1.10
2023-01-21T07:55:03.759Z,1.00
2023-01-21T07:57:30.720Z,1.00
2023-01-21T07:59:57.807Z,1.00
2023-01-21T08:02:25.581Z,1.00
2023-01-21T08:04:52.654Z,1.00
2023-01-21T08:07:19.649Z,1.00
2023-01-21T08:09:46.689Z,1.00
2023-01-21T08:12:13.725Z,1.00
2023-01-21T08:14:40.696Z,1.10
2023-01-21T08:17:07.711Z,1.10
2023-01-21T08:19:34.665Z,1.00
2023-01-21T08:22:01.696Z,1.00
2023-01-21T08:24:28.735Z,1.00
2023-01-21T08:26:59.771Z,1.00
2023-01-21T08:29:27.646Z,1.10
2023-01-21T08:31:54.899Z,1.10
2023-01-21T08:34:22.078Z,1.10
2023-01-21T08:36:49.440Z,1.10
2023-01-21T08:39:16.748Z,1.10
2023-01-21T08:41:44.803Z,1.20
2023-01-21T08:44:12.183Z,1.30
2023-01-21T08:46:39.207Z,1.20
2023-01-21T08:49:06.895Z,1.10
2023-01-21T08:51:34.479Z,1.20
2023-01-21T08:54:01.624Z,1.20
2023-01-21T08:56:28.769Z,1.30
2023-01-21T08:58:57.497Z,1.30
2023-01-21T09:01:25.969Z,1.30
2023-01-21T09:04:00.978Z,1.30
2023-01-21T09:06:29.748Z,1.30
2023-01-21T09:08:57.005Z,1.30
2023-01-21T09:11:25.020Z,1.30
2023-01-21T09:13:52.101Z,1.40
2023-01-21T09:16:22.249Z,1.30
2023-01-21T09:18:49.544Z,1.50
2023-01-21T09:21:17.116Z,1.50
2023-01-21T09:23:44.519Z,1.40
2023-01-21T09:26:17.447Z,1.50
2023-01-21T09:28:47.831Z,1.40
2023-01-21T09:31:18.389Z,1.40
2023-01-21T09:33:47.428Z,1.50
2023-01-21T09:36:20.875Z,1.60
2023-01-21T09:38:49.159Z,1.60
2023-01-21T09:41:37.244Z,1.50
2023-01-21T09:44:44.772Z,1.50
2023-01-21T09:47:20.401Z,1.50
2023-01-21T09:49:50.668Z,1.60
2023-01-21T09:52:31.402Z,1.50
2023-01-21T09:54:59.034Z,1.60
2023-01-21T09:57:53.519Z,1.50
2023-01-21T10:00:38.539Z,1.50
2023-01-21T10:03:27.049Z,1.50
2023-01-21T10:06:13.413Z,1.60
2023-01-21T10:08:46.436Z,1.60
2023-01-21T10:11:57.624Z,1.60
2023-01-21T10:14:24.741Z,1.60
2023-01-21T10:17:16.798Z,1.60
2023-01-21T10:19:56.057Z,1.70
2023-01-21T10:22:27.701Z,1.60
2023-01-21T10:25:18.659Z,1.70
2023-01-21T10:27:46.478Z,1.70
2023-01-21T10:30:34.201Z,1.60
2023-01-21T10:33:01.575Z,1.60
2023-01-21T10:35:39.453Z,1.70
2023-01-21T10:38:32.415Z,1.70
2023-01-21T10:41:26.605Z,1.80
2023-01-21T10:44:02.888Z,1.80
2023-01-21T10:46:45.009Z,1.80
2023-01-21T10:49:21.188Z,1.90
2023-01-21T10:52:15.589Z,1.90
2023-01-21T10:54:57.522Z,1.90
2023-01-21T10:57:43.435Z,1.80
2023-01-21T11:00:31.671Z,1.80
2023-01-21T11:03:08.802Z,1.80
2023-01-21T11:05:36.148Z,1.80
2023-01-21T11:08:03.984Z,1.80
2023-01-21T11:10:31.051Z,1.90
2023-01-21T11:12:58.372Z,1.90
2023-01-21T11:15:26.294Z,1.90
2023-01-21T11:17:56.503Z,1.80
2023-01-21T11:20:41.155Z,1.90
2023-01-21T11:23:26.864Z,2.00
2023-01-21T11:26:02.058Z,1.90
2023-01-21T11:28:30.709Z,2.00
2023-01-21T11:31:12.541Z,2.00
2023-01-21T11:33:41.305Z,2.10
2023-01-21T11:36:19.906Z,2.00
2023-01-21T11:39:00.109Z,2.00
2023-01-21T11:41:27.859Z,2.00
2023-01-21T11:44:07.049Z,1.90
2023-01-21T11:46:41.298Z,2.10
2023-01-21T11:49:08.249Z,2.10
2023-01-21T11:51:36.749Z,2.10
2023-01-21T11:54:24.197Z,2.10
2023-01-21T11:56:56.009Z,2.10
2023-01-21T11:59:27.741Z,2.10
2023-01-21T12:02:00.141Z,2.00
2023-01-21T12:04:27.465Z,2.10
2023-01-21T12:06:58.682Z,2.20
2023-01-21T12:09:27.516Z,2.10
2023-01-21T12:12:35.690Z,2.10
2023-01-21T12:15:29.137Z,2.20
2023-01-21T12:18:04.187Z,2.10
2023-01-21T12:20:49.142Z,2.00
2023-01-21T12:23:41.410Z,2.00
2023-01-21T12:26:32.828Z,1.90
2023-01-21T12:29:20.900Z,1.90
2023-01-21T12:31:59.280Z,1.90
2023-01-21T12:34:38.753Z,1.90
2023-01-21T12:37:14.039Z,1.80
2023-01-21T12:39:43.610Z,1.80
2023-01-21T12:42:29.440Z,1.90
2023-01-21T12:45:21.523Z,1.90
2023-01-21T12:48:10.411Z,2.00
2023-01-21T12:50:45.714Z,2.10
2023-01-21T12:53:39.331Z,2.10
2023-01-21T12:56:39.023Z,2.10
2023-01-21T12:59:32.719Z,2.10
2023-01-21T13:02:18.206Z,2.10
2023-01-21T13:04:48.256Z,2.00
2023-01-21T13:07:47.396Z,1.90
2023-01-21T13:10:22.504Z,1.90
2023-01-21T13:13:00.170Z,1.90
2023-01-21T13:15:39.458Z,1.90
2023-01-21T13:18:16.397Z,1.90
2023-01-21T13:20:52.875Z,2.00
2023-01-21T13:23:33.035Z,2.00
2023-01-21T13:26:15.182Z,2.00
2023-01-21T13:29:05.114Z,2.00
2023-01-21T13:32:01.594Z,2.00
2023-01-21T13:34:41.247Z,1.90
2023-01-21T13:37:32.739Z,1.90
2023-01-21T13:40:14.786Z,1.90
2023-01-21T13:42:55.902Z,2.10
2023-01-21T13:45:54.697Z,2.00
2023-01-21T13:48:46.687Z,2.10
2023-01-21T13:51:19.151Z,2.20
2023-01-21T13:54:03.892Z,2.10
2023-01-21T13:56:58.931Z,2.00
2023-01-21T13:59:30.667Z,1.90
2023-01-21T14:02:03.707Z,1.80
2023-01-21T14:04:39.162Z,1.70
2023-01-21T14:07:21.416Z,1.70
2023-01-21T14:10:07.356Z,1.80
2023-01-21T14:12:59.222Z,1.70
2023-01-21T14:15:39.549Z,1.60
2023-01-21T14:18:40.713Z,1.70
2023-01-21T14:21:21.002Z,1.60
2023-01-21T14:24:06.326Z,1.50
2023-01-21T14:27:00.759Z,1.60
2023-01-21T14:29:36.956Z,1.60
2023-01-21T14:32:33.592Z,1.50
2023-01-21T14:35:03.771Z,1.50
2023-01-21T14:37:53.752Z,1.40
2023-01-21T14:40:33.093Z,1.40
2023-01-21T14:43:00.955Z,1.40
2023-01-21T14:46:25.001Z,1.30
2023-01-21T14:49:38.195Z,1.30
2023-01-21T14:52:05.825Z,1.40
2023-01-21T14:54:33.179Z,1.40
2023-01-21T14:57:13.835Z,1.40
2023-01-21T14:59:46.618Z,1.40
2023-01-21T15:02:37.378Z,1.40
2023-01-21T15:05:10.782Z,1.40
2023-01-21T15:07:43.463Z,1.40
2023-01-21T15:10:21.607Z,1.40
2023-01-21T15:12:57.899Z,1.40
2023-01-21T15:15:39.995Z,1.40
2023-01-21T15:18:09.773Z,1.40
2023-01-21T15:20:42.874Z,1.40
2023-01-21T15:23:31.421Z,1.40
2023-01-21T15:26:07.797Z,1.50
2023-01-21T15:28:56.599Z,1.50
2023-01-21T15:31:23.931Z,1.50
2023-01-21T15:34:00.877Z,1.40
2023-01-21T15:36:34.801Z,1.40
2023-01-21T15:39:23.279Z,1.40
2023-01-21T15:42:05.414Z,1.40
2023-01-21T15:44:58.582Z,1.40
2023-01-21T15:47:41.110Z,1.40
2023-01-21T15:50:26.829Z,1.40
2023-01-21T15:53:05.339Z,1.40
2023-01-21T15:55:41.996Z,1.40
2023-01-21T15:58:47.488Z,1.40
2023-01-21T16:01:32.327Z,1.40
2023-01-21T16:04:11.414Z,1.50
2023-01-21T16:07:06.617Z,1.50
2023-01-21T16:09:53.924Z,1.50
2023-01-21T16:12:47.012Z,1.50
2023-01-21T16:15:38.256Z,1.50
2023-01-21T16:18:29.867Z,1.50
2023-01-21T16:20:59.555Z,1.50
2023-01-21T16:23:29.348Z,1.50
2023-01-21T16:25:56.504Z,1.50
2023-01-21T16:28:23.801Z,1.50
2023-01-21T16:30:59.262Z,1.50
2023-01-21T16:33:26.443Z,1.50
2023-01-21T16:35:56.766Z,1.50
2023-01-21T16:38:31.465Z,1.60
2023-01-21T16:41:07.794Z,1.50
2023-01-21T16:43:37.957Z,1.50
2023-01-21T16:46:24.735Z,1.50
2023-01-21T16:48:54.818Z,1.50
2023-01-21T16:51:25.299Z,1.50
2023-01-21T16:53:53.922Z,1.50
2023-01-21T16:56:26.423Z,1.50
2023-01-21T16:58:55.906Z,1.50
2023-01-21T17:01:26.532Z,1.50
2023-01-21T17:03:53.739Z,1.50
2023-01-21T17:06:29.318Z,1.50
2023-01-21T17:09:07.207Z,1.50
2023-01-21T17:11:36.861Z,1.40
2023-01-21T17:14:10.431Z,1.50
2023-01-21T17:16:40.459Z,1.50
2023-01-21T17:19:23.559Z,1.40
2023-01-21T17:21:55.610Z,1.40
2023-01-21T17:24:34.226Z,1.40
2023-01-21T17:27:06.982Z,1.40
2023-01-21T17:29:34.779Z,1.40
2023-01-21T17:32:08.086Z,1.40
2023-01-21T17:34:37.628Z,1.40
2023-01-21T17:37:41.399Z,1.40
2023-01-21T17:41:01.059Z,1.40
2023-01-21T17:43:28.239Z,1.40
2023-01-21T17:45:57.104Z,1.50
2023-01-21T17:48:29.075Z,1.50
2023-01-21T17:51:13.777Z,1.50
2023-01-21T17:53:46.249Z,1.50
2023-01-21T17:56:13.570Z,1.50
2023-01-21T17:58:50.287Z,1.40
2023-01-21T18:01:19.306Z,1.40
2023-01-21T18:03:46.345Z,1.40
2023-01-21T18:06:22.601Z,1.40
2023-01-21T18:08:50.975Z,1.40
2023-01-21T18:11:18.201Z,1.40
2023-01-21T18:13:45.336Z,1.50
2023-01-21T18:16:12.524Z,1.50
2023-01-21T18:18:40.363Z,1.50
2023-01-21T18:21:17.962Z,1.50
2023-01-21T18:23:45.161Z,1.50
2023-01-21T18:26:30.059Z,1.50
2023-01-21T18:28:57.228Z,1.70
2023-01-21T18:31:24.660Z,1.70
2023-01-21T18:33:51.875Z,1.70
2023-01-21T18:36:18.848Z,1.70
2023-01-21T18:38:46.029Z,1.60
2023-01-21T18:41:13.600Z,1.60
2023-01-21T18:43:40.599Z,1.60
2023-01-21T18:46:16.382Z,1.50
2023-01-21T18:48:43.689Z,1.50
2023-01-21T18:51:12.317Z,1.40
2023-01-21T18:53:39.430Z,1.40
2023-01-21T18:56:11.953Z,1.40
2023-01-21T18:58:39.110Z,1.50
2023-01-21T19:01:21.345Z,1.50
2023-01-21T19:03:49.394Z,1.50
2023-01-21T19:06:17.462Z,1.50
2023-01-21T19:08:45.297Z,1.50
2023-01-21T19:11:14.038Z,1.50
2023-01-21T19:13:41.072Z,1.50
2023-01-21T19:16:19.121Z,1.50
2023-01-21T19:18:46.425Z,1.50
2023-01-21T19:21:13.501Z,1.50
2023-01-21T19:23:40.654Z,1.60
2023-01-21T19:26:09.344Z,1.60
2023-01-21T19:28:37.482Z,1.60
2023-01-21T19:31:04.893Z,1.60
2023-01-21T19:33:32.003Z,1.60
2023-01-21T19:36:16.623Z,1.50
2023-01-21T19:38:50.527Z,1.50
2023-01-21T19:41:17.911Z,1.50
2023-01-21T19:43:44.989Z,1.50
2023-01-21T19:46:12.657Z,1.50
2023-01-21T19:48:41.060Z,1.50
2023-01-21T19:51:08.322Z,1.60
2023-01-21T19:53:35.506Z,1.50
2023-01-21T19:56:04.832Z,1.50
2023-01-21T19:58:32.610Z,1.50
2023-01-21T20:00:59.729Z,1.50
2023-01-21T20:03:28.428Z,1.50
2023-01-21T20:06:04.232Z,1.50
2023-01-21T20:08:32.299Z,1.50
2023-01-21T20:10:59.340Z,1.50
2023-01-21T20:13:28.572Z,1.50
2023-01-21T20:15:56.118Z,1.50
2023-01-21T20:18:28.754Z,1.60
2023-01-21T20:20:56.858Z,1.60
2023-01-21T20:23:25.272Z,1.60
2023-01-21T20:25:55.729Z,1.70
2023-01-21T20:28:33.563Z,1.70
2023-01-21T20:31:03.540Z,1.70
2023-01-21T20:33:30.659Z,1.60
2023-01-21T20:35:58.066Z,1.60
2023-01-21T20:38:30.186Z,1.60
2023-01-21T20:41:01.170Z,1.60
2023-01-21T20:43:28.698Z,1.60
2023-01-21T20:46:00.352Z,1.60
2023-01-21T20:48:40.691Z,1.60
2023-01-21T20:51:08.065Z,1.70
2023-01-21T20:53:35.912Z,1.60
2023-01-21T20:56:16.543Z,1.60
2023-01-21T20:58:45.578Z,1.60
2023-01-21T21:03:44.842Z,1.60
2023-01-21T21:06:16.601Z,1.60
2023-01-21T21:08:43.936Z,1.60
2023-01-21T21:11:11.416Z,1.60
2023-01-21T21:13:38.535Z,1.60
2023-01-21T21:16:33.701Z,1.60
2023-01-21T21:19:00.943Z,1.60
2023-01-21T21:21:28.018Z,1.50
2023-01-21T21:23:55.062Z,1.50
2023-01-21T21:26:29.309Z,1.50
2023-01-21T21:28:57.865Z,1.50
2023-01-21T21:31:32.905Z,1.50
2023-01-21T21:34:00.247Z,1.50
2023-01-21T21:36:27.277Z,1.60
2023-01-21T21:38:57.343Z,1.50
2023-01-21T21:41:44.879Z,1.50
2023-01-21T21:44:13.364Z,1.40
2023-01-21T21:47:00.053Z,1.50
2023-01-21T21:49:28.319Z,1.50
2023-01-21T21:51:55.511Z,1.50
2023-01-21T21:54:23.803Z,1.50
2023-01-21T21:56:50.879Z,1.50
2023-01-21T21:59:18.196Z,1.50
2023-01-21T22:01:45.489Z,1.50
2023-01-21T22:04:12.780Z,1.50
2023-01-21T22:06:39.938Z,1.50
2023-01-21T22:09:07.792Z,1.50
2023-01-21T22:11:35.342Z,1.50
2023-01-21T22:14:05.144Z,1.50
2023-01-21T22:16:35.252Z,1.40
2023-01-21T22:19:02.352Z,1.40
2023-01-21T22:21:34.506Z,1.40
2023-01-21T22:24:02.951Z,1.50
2023-01-21T22:26:30.407Z,1.50
2023-01-21T22:28:57.692Z,1.50
2023-01-21T22:31:27.606Z,1.50
2023-01-21T22:33:55.535Z,1.50
2023-01-21T22:36:25.241Z,1.50
2023-01-21T22:38:52.953Z,1.50
2023-01-21T22:41:22.527Z,1.50
2023-01-21T22:43:51.407Z,1.50
2023-01-21T22:46:24.530Z,1.50
2023-01-21T22:48:54.179Z,1.50
2023-01-21T22:51:22.985Z,1.50
2023-01-21T22:53:51.397Z,1.50
2023-01-21T22:56:25.425Z,1.50
2023-01-21T22:58:59.413Z,1.50
2023-01-21T23:01:31.306Z,1.40
2023-01-21T23:03:59.856Z,1.40
2023-01-21T23:06:27.020Z,1.40
2023-01-21T23:08:54.318Z,1.40
2023-01-21T23:11:22.030Z,1.40
2023-01-21T23:13:49.979Z,1.40
2023-01-21T23:16:19.455Z,1.40
2023-01-21T23:18:47.249Z,1.40
2023-01-21T23:21:17.293Z,1.40
2023-01-21T23:23:44.566Z,1.40
2023-01-21T23:26:13.170Z,1.40
2023-01-21T23:28:40.353Z,1.40
2023-01-21T23:31:16.201Z,1.40
2023-01-21T23:33:43.774Z,1.40
2023-01-21T23:36:13.584Z,1.40
2023-01-21T23:38:42.013Z,1.30
2023-01-21T23:41:14.389Z,1.30
2023-01-21T23:43:41.598Z,1.30
2023-01-21T23:46:12.572Z,1.40
2023-01-21T23:48:40.142Z,1.40
2023-01-21T23:51:11.090Z,1.40
2023-01-21T23:53:38.247Z,1.40
2023-01-21T23:56:20.805Z,1.40
2023-01-21T23:58:48.381Z,1.40
